sensor_id;sensor_type;location;lat;lon;timestamp;temperature;humidity
3344;DHT22;1685;53.104;8.228;2022-12-10T00:04:14;0.10;99.90
3344;DHT22;1685;53.104;8.228;2022-12-10T00:06:41;0.20;99.90
3344;DHT22;1685;53.104;8.228;2022-12-10T00:09:12;0.20;99.90
3344;DHT22;1685;53.104;8.228;2022-12-10T00:11:39;0.20;99.90
3344;DHT22;1685;53.104;8.228;2022-12-10T00:16:35;0.20;99.90
3344;DHT22;1685;53.104;8.228;2022-12-10T00:21:30;0.20;99.90
3344;DHT22;1685;53.104;8.228;2022-12-10T00:26:26;0.20;99.90
3344;DHT22;1685;53.104;8.228;2022-12-10T00:31:23;0.20;99.90
3344;DHT22;1685;53.104;8.228;2022-12-10T00:33:53;0.20;99.90
3344;DHT22;1685;53.104;8.228;2022-12-10T00:36:22;0.10;99.90
3344;DHT22;1685;53.104;8.228;2022-12-10T00:51:09;0.10;99.90
3344;DHT22;1685;53.104;8.228;2022-12-10T00:53:38;0.00;99.90
3344;DHT22;1685;53.104;8.228;2022-12-10T00:56:06;-0.10;99.90
3344;DHT22;1685;53.104;8.228;2022-12-10T00:58:33;-0.10;99.90
3344;DHT22;1685;53.104;8.228;2022-12-10T01:01:08;0.50;99.90
3344;DHT22;1685;53.104;8.228;2022-12-10T01:06:14;-0.10;99.90
3344;DHT22;1685;53.104;8.228;2022-12-10T01:08:42;-0.10;99.90
3344;DHT22;1685;53.104;8.228;2022-12-10T01:11:09;-0.20;99.90
3344;DHT22;1685;53.104;8.228;2022-12-10T01:13:36;-0.20;99.90
3344;DHT22;1685;53.104;8.228;2022-12-10T01:16:05;-0.10;99.90
3344;DHT22;1685;53.104;8.228;2022-12-10T01:21:01;-0.30;99.90
3344;DHT22;1685;53.104;8.228;2022-12-10T01:23:31;-0.20;99.90
3344;DHT22;1685;53.104;8.228;2022-12-10T01:26:00;-0.20;99.90
3344;DHT22;1685;53.104;8.228;2022-12-10T01:28:28;0.00;99.90
3344;DHT22;1685;53.104;8.228;2022-12-10T01:33:22;-0.30;99.90
3344;DHT22;1685;53.104;8.228;2022-12-10T01:40:44;-0.20;99.90
3344;DHT22;1685;53.104;8.228;2022-12-10T01:43:13;-0.20;99.90
3344;DHT22;1685;53.104;8.228;2022-12-10T01:45:40;-0.30;99.90
3344;DHT22;1685;53.104;8.228;2022-12-10T01:48:07;-0.10;99.90
3344;DHT22;1685;53.104;8.228;2022-12-10T01:50:34;0.30;99.90
3344;DHT22;1685;53.104;8.228;2022-12-10T01:53:01;-0.40;99.90
3344;DHT22;1685;53.104;8.228;2022-12-10T01:55:43;-0.30;99.90
3344;DHT22;1685;53.104;8.228;2022-12-10T01:58:12;-0.20;99.90
3344;DHT22;1685;53.104;8.228;2022-12-10T02:00:46;-0.40;99.90
3344;DHT22;1685;53.104;8.228;2022-12-10T02:03:20;-0.20;99.90
3344;DHT22;1685;53.104;8.228;2022-12-10T02:05:54;-0.20;99.90
3344;DHT22;1685;53.104;8.228;2022-12-10T02:08:26;-0.20;99.90
3344;DHT22;1685;53.104;8.228;2022-12-10T02:11:01;-0.20;99.90
3344;DHT22;1685;53.104;8.228;2022-12-10T02:13:38;-0.10;99.90
3344;DHT22;1685;53.104;8.228;2022-12-10T02:16:09;-0.20;99.90
3344;DHT22;1685;53.104;8.228;2022-12-10T02:18:39;0.20;99.90
3344;DHT22;1685;53.104;8.228;2022-12-10T02:21:12;-0.10;99.90
3344;DHT22;1685;53.104;8.228;2022-12-10T02:23:42;-0.20;99.90
3344;DHT22;1685;53.104;8.228;2022-12-10T02:26:14;-0.20;99.90
3344;DHT22;1685;53.104;8.228;2022-12-10T02:28:48;-0.10;99.90
3344;DHT22;1685;53.104;8.228;2022-12-10T02:31:22;-0.10;99.90
3344;DHT22;1685;53.104;8.228;2022-12-10T02:33:56;-0.10;99.90
3344;DHT22;1685;53.104;8.228;2022-12-10T02:36:25;0.00;99.90
3344;DHT22;1685;53.104;8.228;2022-12-10T02:38:54;-0.10;99.90
3344;DHT22;1685;53.104;8.228;2022-12-10T02:41:25;0.00;99.90
3344;DHT22;1685;53.104;8.228;2022-12-10T02:43:54;-0.10;99.90
3344;DHT22;1685;53.104;8.228;2022-12-10T02:46:24;-0.10;99.90
3344;DHT22;1685;53.104;8.228;2022-12-10T02:48:54;-0.10;99.90
3344;DHT22;1685;53.104;8.228;2022-12-10T02:51:21;-0.10;99.90
3344;DHT22;1685;53.104;8.228;2022-12-10T02:53:48;0.00;99.90
3344;DHT22;1685;53.104;8.228;2022-12-10T02:56:20;-0.10;99.90
3344;DHT22;1685;53.104;8.228;2022-12-10T02:58:57;-0.10;99.90
3344;DHT22;1685;53.104;8.228;2022-12-10T03:01:35;-0.10;99.90
3344;DHT22;1685;53.104;8.228;2022-12-10T03:04:09;-0.10;99.90
3344;DHT22;1685;53.104;8.228;2022-12-10T03:06:41;-0.10;99.90
3344;DHT22;1685;53.104;8.228;2022-12-10T03:09:12;-0.10;99.90
3344;DHT22;1685;53.104;8.228;2022-12-10T03:11:43;0.00;99.90
3344;DHT22;1685;53.104;8.228;2022-12-10T03:14:14;-0.10;99.90
3344;DHT22;1685;53.104;8.228;2022-12-10T03:16:46;0.00;99.90
3344;DHT22;1685;53.104;8.228;2022-12-10T03:19:17;0.00;99.90
3344;DHT22;1685;53.104;8.228;2022-12-10T03:21:47;-0.10;99.90
3344;DHT22;1685;53.104;8.228;2022-12-10T03:24:15;-0.20;99.90
3344;DHT22;1685;53.104;8.228;2022-12-10T03:26:45;-0.10;99.90
3344;DHT22;1685;53.104;8.228;2022-12-10T03:29:17;-0.10;99.90
3344;DHT22;1685;53.104;8.228;2022-12-10T03:31:48;-0.10;99.90
3344;DHT22;1685;53.104;8.228;2022-12-10T03:36:44;-0.20;99.90
3344;DHT22;1685;53.104;8.228;2022-12-10T03:39:11;-0.20;99.90
3344;DHT22;1685;53.104;8.228;2022-12-10T03:49:03;-0.40;99.90
3344;DHT22;1685;53.104;8.228;2022-12-10T04:06:16;-0.40;99.90
3344;DHT22;1685;53.104;8.228;2022-12-10T04:11:11;-0.50;99.90
3344;DHT22;1685;53.104;8.228;2022-12-10T04:16:24;-0.60;99.90
3344;DHT22;1685;53.104;8.228;2022-12-10T04:18:54;-0.60;99.90
3344;DHT22;1685;53.104;8.228;2022-12-10T04:21:23;-0.50;99.90
3344;DHT22;1685;53.104;8.228;2022-12-10T04:24:08;-0.60;99.90
3344;DHT22;1685;53.104;8.228;2022-12-10T04:26:53;-0.60;99.90
3344;DHT22;1685;53.104;8.228;2022-12-10T04:29:21;-0.80;99.90
3344;DHT22;1685;53.104;8.228;2022-12-10T04:31:48;-0.70;99.90
3344;DHT22;1685;53.104;8.228;2022-12-10T04:34:15;-0.80;99.90
3344;DHT22;1685;53.104;8.228;2022-12-10T04:36:43;-0.80;99.90
3344;DHT22;1685;53.104;8.228;2022-12-10T04:39:11;-1.00;99.90
3344;DHT22;1685;53.104;8.228;2022-12-10T04:41:39;-0.90;99.90
3344;DHT22;1685;53.104;8.228;2022-12-10T04:53:55;-1.00;99.90
3344;DHT22;1685;53.104;8.228;2022-12-10T05:03:45;-1.20;99.90
3344;DHT22;1685;53.104;8.228;2022-12-10T05:06:14;-1.10;99.90
3344;DHT22;1685;53.104;8.228;2022-12-10T05:08:41;-1.20;99.90
3344;DHT22;1685;53.104;8.228;2022-12-10T05:11:11;-1.10;99.90
3344;DHT22;1685;53.104;8.228;2022-12-10T05:13:39;-1.20;99.90
3344;DHT22;1685;53.104;8.228;2022-12-10T05:16:09;-1.30;99.90
3344;DHT22;1685;53.104;8.228;2022-12-10T05:18:36;-1.30;99.90
3344;DHT22;1685;53.104;8.228;2022-12-10T05:21:05;-1.10;99.90
3344;DHT22;1685;53.104;8.228;2022-12-10T05:26:00;-1.20;99.90
3344;DHT22;1685;53.104;8.228;2022-12-10T05:28:29;-1.20;99.90
3344;DHT22;1685;53.104;8.228;2022-12-10T05:30:57;-1.30;99.90
3344;DHT22;1685;53.104;8.228;2022-12-10T05:33:24;-1.40;99.90
3344;DHT22;1685;53.104;8.228;2022-12-10T05:35:53;-1.30;99.90
3344;DHT22;1685;53.104;8.228;2022-12-10T05:45:42;-1.40;99.90
3344;DHT22;1685;53.104;8.228;2022-12-10T05:48:09;-1.40;99.90
3344;DHT22;1685;53.104;8.228;2022-12-10T05:55:30;-1.50;99.90
3344;DHT22;1685;53.104;8.228;2022-12-10T06:02:54;-1.50;99.90
3344;DHT22;1685;53.104;8.228;2022-12-10T06:07:48;-1.40;99.90
3344;DHT22;1685;53.104;8.228;2022-12-10T06:15:09;-1.40;99.90
3344;DHT22;1685;53.104;8.228;2022-12-10T06:17:36;-1.40;99.90
3344;DHT22;1685;53.104;8.228;2022-12-10T06:20:05;-1.50;99.90
3344;DHT22;1685;53.104;8.228;2022-12-10T06:22:33;-1.40;99.90
3344;DHT22;1685;53.104;8.228;2022-12-10T06:25:00;-1.40;99.90
3344;DHT22;1685;53.104;8.228;2022-12-10T06:32:20;-1.40;99.90
3344;DHT22;1685;53.104;8.228;2022-12-10T06:37:15;-1.40;99.90
3344;DHT22;1685;53.104;8.228;2022-12-10T06:39:42;-1.40;99.90
3344;DHT22;1685;53.104;8.228;2022-12-10T06:42:09;-1.40;99.90
3344;DHT22;1685;53.104;8.228;2022-12-10T06:44:35;-1.40;99.90
3344;DHT22;1685;53.104;8.228;2022-12-10T06:47:02;-1.40;99.90
3344;DHT22;1685;53.104;8.228;2022-12-10T06:54:24;-1.30;99.90
3344;DHT22;1685;53.104;8.228;2022-12-10T06:56:51;-1.40;99.90
3344;DHT22;1685;53.104;8.228;2022-12-10T06:59:18;-1.30;99.90
3344;DHT22;1685;53.104;8.228;2022-12-10T07:01:45;-1.40;99.90
3344;DHT22;1685;53.104;8.228;2022-12-10T07:06:39;-1.50;99.90
3344;DHT22;1685;53.104;8.228;2022-12-10T07:09:06;-1.40;99.90
3344;DHT22;1685;53.104;8.228;2022-12-10T07:11:36;-1.30;99.90
3344;DHT22;1685;53.104;8.228;2022-12-10T07:14:03;-1.30;99.90
3344;DHT22;1685;53.104;8.228;2022-12-10T07:16:31;-1.40;99.90
3344;DHT22;1685;53.104;8.228;2022-12-10T07:19:00;-1.50;99.90
3344;DHT22;1685;53.104;8.228;2022-12-10T07:21:28;-1.30;99.90
3344;DHT22;1685;53.104;8.228;2022-12-10T07:23:57;-1.30;99.90
3344;DHT22;1685;53.104;8.228;2022-12-10T07:26:25;-1.30;99.90
3344;DHT22;1685;53.104;8.228;2022-12-10T07:28:53;-1.30;99.90
3344;DHT22;1685;53.104;8.228;2022-12-10T07:31:20;-1.20;99.90
3344;DHT22;1685;53.104;8.228;2022-12-10T07:33:48;-1.30;99.90
3344;DHT22;1685;53.104;8.228;2022-12-10T07:36:16;-1.30;99.90
3344;DHT22;1685;53.104;8.228;2022-12-10T07:41:11;-1.20;99.90
3344;DHT22;1685;53.104;8.228;2022-12-10T07:43:40;-1.20;99.90
3344;DHT22;1685;53.104;8.228;2022-12-10T07:46:10;-1.10;99.90
3344;DHT22;1685;53.104;8.228;2022-12-10T07:48:39;-1.10;99.90
3344;DHT22;1685;53.104;8.228;2022-12-10T07:51:06;-1.10;99.90
3344;DHT22;1685;53.104;8.228;2022-12-10T07:56:01;-1.10;99.90
3344;DHT22;1685;53.104;8.228;2022-12-10T08:00:55;-1.00;99.90
3344;DHT22;1685;53.104;8.228;2022-12-10T08:03:24;-1.10;99.90
3344;DHT22;1685;53.104;8.228;2022-12-10T08:06:00;-0.90;99.90
3344;DHT22;1685;53.104;8.228;2022-12-10T08:20:43;-0.60;99.90
3344;DHT22;1685;53.104;8.228;2022-12-10T08:23:10;-0.70;99.90
3344;DHT22;1685;53.104;8.228;2022-12-10T08:28:04;-0.60;99.90
3344;DHT22;1685;53.104;8.228;2022-12-10T08:30:31;-0.60;99.90
3344;DHT22;1685;53.104;8.228;2022-12-10T08:32:57;-0.70;99.90
3344;DHT22;1685;53.104;8.228;2022-12-10T08:37:52;-0.60;99.90
3344;DHT22;1685;53.104;8.228;2022-12-10T08:40:19;-0.40;99.90
3344;DHT22;1685;53.104;8.228;2022-12-10T08:45:13;-0.50;99.90
3344;DHT22;1685;53.104;8.228;2022-12-10T08:47:39;-0.40;99.90
3344;DHT22;1685;53.104;8.228;2022-12-10T08:50:07;-0.40;99.90
3344;DHT22;1685;53.104;8.228;2022-12-10T08:52:33;-0.40;99.90
3344;DHT22;1685;53.104;8.228;2022-12-10T08:55:02;-0.40;99.90
3344;DHT22;1685;53.104;8.228;2022-12-10T08:57:28;-0.40;99.90
3344;DHT22;1685;53.104;8.228;2022-12-10T08:59:55;-0.40;99.90
3344;DHT22;1685;53.104;8.228;2022-12-10T09:04:49;-0.40;99.90
3344;DHT22;1685;53.104;8.228;2022-12-10T09:07:16;-0.40;99.90
3344;DHT22;1685;53.104;8.228;2022-12-10T09:09:43;-0.30;99.90
3344;DHT22;1685;53.104;8.228;2022-12-10T09:12:11;-0.30;99.90
3344;DHT22;1685;53.104;8.228;2022-12-10T09:14:38;-0.30;99.90
3344;DHT22;1685;53.104;8.228;2022-12-10T09:17:06;-0.40;99.90
3344;DHT22;1685;53.104;8.228;2022-12-10T09:19:33;-0.30;99.90
3344;DHT22;1685;53.104;8.228;2022-12-10T09:29:22;0.00;99.90
3344;DHT22;1685;53.104;8.228;2022-12-10T09:31:50;-0.10;99.90
3344;DHT22;1685;53.104;8.228;2022-12-10T09:34:17;0.00;99.90
3344;DHT22;1685;53.104;8.228;2022-12-10T09:41:52;0.00;99.90
3344;DHT22;1685;53.104;8.228;2022-12-10T09:44:32;0.10;99.90
3344;DHT22;1685;53.104;8.228;2022-12-10T09:47:06;0.10;99.90
3344;DHT22;1685;53.104;8.228;2022-12-10T09:49:43;0.20;99.90
3344;DHT22;1685;53.104;8.228;2022-12-10T09:52:14;0.20;99.90
3344;DHT22;1685;53.104;8.228;2022-12-10T09:54:43;0.60;99.90
3344;DHT22;1685;53.104;8.228;2022-12-10T09:57:19;0.70;99.90
3344;DHT22;1685;53.104;8.228;2022-12-10T09:59:49;0.70;99.90
3344;DHT22;1685;53.104;8.228;2022-12-10T10:02:21;0.60;99.90
3344;DHT22;1685;53.104;8.228;2022-12-10T10:04:49;0.30;99.90
3344;DHT22;1685;53.104;8.228;2022-12-10T10:07:20;0.50;99.90
3344;DHT22;1685;53.104;8.228;2022-12-10T10:14:42;0.30;99.90
3344;DHT22;1685;53.104;8.228;2022-12-10T10:17:14;0.30;99.90
3344;DHT22;1685;53.104;8.228;2022-12-10T10:22:11;0.40;99.90
3344;DHT22;1685;53.104;8.228;2022-12-10T10:24:40;0.40;99.90
3344;DHT22;1685;53.104;8.228;2022-12-10T10:27:13;0.30;99.90
3344;DHT22;1685;53.104;8.228;2022-12-10T10:29:43;0.30;99.90
3344;DHT22;1685;53.104;8.228;2022-12-10T10:32:14;0.40;99.90
3344;DHT22;1685;53.104;8.228;2022-12-10T10:34:42;0.30;99.90
3344;DHT22;1685;53.104;8.228;2022-12-10T10:37:16;0.50;99.90
3344;DHT22;1685;53.104;8.228;2022-12-10T10:39:48;0.40;99.90
3344;DHT22;1685;53.104;8.228;2022-12-10T10:42:27;0.50;99.90
3344;DHT22;1685;53.104;8.228;2022-12-10T10:47:28;0.40;99.90
3344;DHT22;1685;53.104;8.228;2022-12-10T10:57:21;0.70;99.90
3344;DHT22;1685;53.104;8.228;2022-12-10T11:02:20;0.70;99.90
3344;DHT22;1685;53.104;8.228;2022-12-10T11:04:50;0.70;99.90
3344;DHT22;1685;53.104;8.228;2022-12-10T11:07:22;0.60;99.90
3344;DHT22;1685;53.104;8.228;2022-12-10T11:09:52;0.70;99.90
3344;DHT22;1685;53.104;8.228;2022-12-10T11:12:34;0.60;99.90
3344;DHT22;1685;53.104;8.228;2022-12-10T11:15:29;0.70;99.90
3344;DHT22;1685;53.104;8.228;2022-12-10T11:20:27;0.70;99.90
3344;DHT22;1685;53.104;8.228;2022-12-10T11:22:55;0.80;99.90
3344;DHT22;1685;53.104;8.228;2022-12-10T11:25:32;0.80;99.90
3344;DHT22;1685;53.104;8.228;2022-12-10T11:28:07;0.40;99.90
3344;DHT22;1685;53.104;8.228;2022-12-10T11:30:42;0.90;99.90
3344;DHT22;1685;53.104;8.228;2022-12-10T11:33:20;0.90;99.90
3344;DHT22;1685;53.104;8.228;2022-12-10T11:35:57;1.00;99.90
3344;DHT22;1685;53.104;8.228;2022-12-10T11:38:29;0.90;99.90
3344;DHT22;1685;53.104;8.228;2022-12-10T11:41:03;1.00;99.90
3344;DHT22;1685;53.104;8.228;2022-12-10T11:43:47;1.00;99.90
3344;DHT22;1685;53.104;8.228;2022-12-10T11:46:26;1.10;99.90
3344;DHT22;1685;53.104;8.228;2022-12-10T11:49:05;1.00;99.90
3344;DHT22;1685;53.104;8.228;2022-12-10T11:51:41;0.90;99.90
3344;DHT22;1685;53.104;8.228;2022-12-10T11:54:24;0.90;99.90
3344;DHT22;1685;53.104;8.228;2022-12-10T11:56:59;1.00;99.90
3344;DHT22;1685;53.104;8.228;2022-12-10T11:59:33;1.00;99.90
3344;DHT22;1685;53.104;8.228;2022-12-10T12:02:15;1.00;99.90
3344;DHT22;1685;53.104;8.228;2022-12-10T12:05:00;1.10;99.90
3344;DHT22;1685;53.104;8.228;2022-12-10T12:07:40;1.10;99.90
3344;DHT22;1685;53.104;8.228;2022-12-10T12:10:25;1.00;99.90
3344;DHT22;1685;53.104;8.228;2022-12-10T12:12:57;0.90;99.90
3344;DHT22;1685;53.104;8.228;2022-12-10T12:15:29;1.20;99.90
3344;DHT22;1685;53.104;8.228;2022-12-10T12:17:58;1.00;99.90
3344;DHT22;1685;53.104;8.228;2022-12-10T12:20:28;1.00;99.90
3344;DHT22;1685;53.104;8.228;2022-12-10T12:23:02;1.20;99.90
3344;DHT22;1685;53.104;8.228;2022-12-10T12:25:34;1.10;99.90
3344;DHT22;1685;53.104;8.228;2022-12-10T12:28:05;1.30;99.90
3344;DHT22;1685;53.104;8.228;2022-12-10T12:30:37;1.20;99.90
3344;DHT22;1685;53.104;8.228;2022-12-10T12:33:10;1.20;99.90
3344;DHT22;1685;53.104;8.228;2022-12-10T12:35:41;1.00;99.90
3344;DHT22;1685;53.104;8.228;2022-12-10T12:38:22;1.20;99.90
3344;DHT22;1685;53.104;8.228;2022-12-10T12:40:53;1.40;99.90
3344;DHT22;1685;53.104;8.228;2022-12-10T12:43:28;1.20;99.90
3344;DHT22;1685;53.104;8.228;2022-12-10T12:48:29;1.20;99.90
3344;DHT22;1685;53.104;8.228;2022-12-10T12:51:02;1.20;99.90
3344;DHT22;1685;53.104;8.228;2022-12-10T12:53:31;1.20;99.90
3344;DHT22;1685;53.104;8.228;2022-12-10T12:56:02;1.20;99.90
3344;DHT22;1685;53.104;8.228;2022-12-10T12:58:39;1.30;99.90
3344;DHT22;1685;53.104;8.228;2022-12-10T13:01:18;1.20;99.90
3344;DHT22;1685;53.104;8.228;2022-12-10T13:03:48;1.40;99.90
3344;DHT22;1685;53.104;8.228;2022-12-10T13:06:20;1.30;99.90
3344;DHT22;1685;53.104;8.228;2022-12-10T13:08:52;1.40;99.90
3344;DHT22;1685;53.104;8.228;2022-12-10T13:11:29;1.30;99.90
3344;DHT22;1685;53.104;8.228;2022-12-10T13:14:15;1.30;99.90
3344;DHT22;1685;53.104;8.228;2022-12-10T13:16:49;1.30;99.90
3344;DHT22;1685;53.104;8.228;2022-12-10T13:19:24;1.30;99.90
3344;DHT22;1685;53.104;8.228;2022-12-10T13:21:59;1.30;99.90
3344;DHT22;1685;53.104;8.228;2022-12-10T13:27:40;1.20;99.90
3344;DHT22;1685;53.104;8.228;2022-12-10T13:30:30;1.10;99.90
3344;DHT22;1685;53.104;8.228;2022-12-10T13:33:09;1.20;99.90
3344;DHT22;1685;53.104;8.228;2022-12-10T13:35:43;1.20;99.90
3344;DHT22;1685;53.104;8.228;2022-12-10T13:38:20;1.20;99.90
3344;DHT22;1685;53.104;8.228;2022-12-10T13:41:02;1.20;99.90
3344;DHT22;1685;53.104;8.228;2022-12-10T13:43:57;1.20;99.90
3344;DHT22;1685;53.104;8.228;2022-12-10T13:46:57;1.10;99.90
3344;DHT22;1685;53.104;8.228;2022-12-10T13:49:26;1.30;99.90
3344;DHT22;1685;53.104;8.228;2022-12-10T13:52:02;1.30;99.90
3344;DHT22;1685;53.104;8.228;2022-12-10T13:54:42;1.30;99.90
3344;DHT22;1685;53.104;8.228;2022-12-10T13:57:22;1.20;99.90
3344;DHT22;1685;53.104;8.228;2022-12-10T13:59:59;1.50;99.90
3344;DHT22;1685;53.104;8.228;2022-12-10T14:02:52;1.50;99.90
3344;DHT22;1685;53.104;8.228;2022-12-10T14:05:42;1.20;99.90
3344;DHT22;1685;53.104;8.228;2022-12-10T14:08:16;1.10;99.90
3344;DHT22;1685;53.104;8.228;2022-12-10T14:13:15;1.20;99.90
3344;DHT22;1685;53.104;8.228;2022-12-10T14:15:51;1.10;99.90
3344;DHT22;1685;53.104;8.228;2022-12-10T14:20:49;1.10;99.90
3344;DHT22;1685;53.104;8.228;2022-12-10T14:23:23;1.20;99.90
3344;DHT22;1685;53.104;8.228;2022-12-10T14:26:04;1.10;99.90
3344;DHT22;1685;53.104;8.228;2022-12-10T14:28:32;0.80;99.90
3344;DHT22;1685;53.104;8.228;2022-12-10T14:31:01;1.10;99.90
3344;DHT22;1685;53.104;8.228;2022-12-10T14:38:28;1.00;99.90
3344;DHT22;1685;53.104;8.228;2022-12-10T14:43:31;1.00;99.90
3344;DHT22;1685;53.104;8.228;2022-12-10T14:46:02;1.10;99.90
3344;DHT22;1685;53.104;8.228;2022-12-10T14:51:03;1.00;99.90
3344;DHT22;1685;53.104;8.228;2022-12-10T14:53:31;1.00;99.90
3344;DHT22;1685;53.104;8.228;2022-12-10T14:56:01;1.00;99.90
3344;DHT22;1685;53.104;8.228;2022-12-10T14:58:32;0.90;99.90
3344;DHT22;1685;53.104;8.228;2022-12-10T15:01:05;0.90;99.90
3344;DHT22;1685;53.104;8.228;2022-12-10T15:03:35;0.90;99.90
3344;DHT22;1685;53.104;8.228;2022-12-10T15:06:07;0.90;99.90
3344;DHT22;1685;53.104;8.228;2022-12-10T15:13:34;0.80;99.90
3344;DHT22;1685;53.104;8.228;2022-12-10T15:16:06;0.90;99.90
3344;DHT22;1685;53.104;8.228;2022-12-10T15:21:13;0.80;99.90
3344;DHT22;1685;53.104;8.228;2022-12-10T15:26:15;0.80;99.90
3344;DHT22;1685;53.104;8.228;2022-12-10T15:31:18;0.80;99.90
3344;DHT22;1685;53.104;8.228;2022-12-10T15:33:49;0.80;99.90
3344;DHT22;1685;53.104;8.228;2022-12-10T15:36:28;0.80;99.90
3344;DHT22;1685;53.104;8.228;2022-12-10T15:41:37;0.80;99.90
3344;DHT22;1685;53.104;8.228;2022-12-10T15:44:17;0.80;99.90
3344;DHT22;1685;53.104;8.228;2022-12-10T15:46:49;0.70;99.90
3344;DHT22;1685;53.104;8.228;2022-12-10T15:54:21;0.80;99.90
3344;DHT22;1685;53.104;8.228;2022-12-10T16:04:11;0.80;99.90
3344;DHT22;1685;53.104;8.228;2022-12-10T16:21:24;0.70;99.90
3344;DHT22;1685;53.104;8.228;2022-12-10T16:26:21;0.70;99.90
3344;DHT22;1685;53.104;8.228;2022-12-10T16:28:48;0.70;99.90
3344;DHT22;1685;53.104;8.228;2022-12-10T16:31:18;0.70;99.90
3344;DHT22;1685;53.104;8.228;2022-12-10T16:41:15;0.70;99.90
3344;DHT22;1685;53.104;8.228;2022-12-10T16:46:10;0.70;99.90
3344;DHT22;1685;53.104;8.228;2022-12-10T16:51:10;0.70;99.90
3344;DHT22;1685;53.104;8.228;2022-12-10T16:56:12;0.60;99.90
3344;DHT22;1685;53.104;8.228;2022-12-10T17:01:15;0.60;99.90
3344;DHT22;1685;53.104;8.228;2022-12-10T17:06:11;0.60;99.90
3344;DHT22;1685;53.104;8.228;2022-12-10T17:11:15;0.70;99.90
3344;DHT22;1685;53.104;8.228;2022-12-10T17:26:24;0.70;99.90
3344;DHT22;1685;53.104;8.228;2022-12-10T17:41:10;1.40;99.90
3344;DHT22;1685;53.104;8.228;2022-12-10T17:43:41;0.60;99.90
3344;DHT22;1685;53.104;8.228;2022-12-10T17:46:09;0.70;99.90
3344;DHT22;1685;53.104;8.228;2022-12-10T17:55:59;0.70;99.90
3344;DHT22;1685;53.104;8.228;2022-12-10T18:00:56;0.60;99.90
3344;DHT22;1685;53.104;8.228;2022-12-10T18:10:48;0.60;99.90
3344;DHT22;1685;53.104;8.228;2022-12-10T18:23:09;0.60;99.90
3344;DHT22;1685;53.104;8.228;2022-12-10T18:25:37;0.60;99.90
3344;DHT22;1685;53.104;8.228;2022-12-10T18:28:16;0.60;99.90
3344;DHT22;1685;53.104;8.228;2022-12-10T18:31:04;0.50;99.90
3344;DHT22;1685;53.104;8.228;2022-12-10T18:33:37;0.60;99.90
3344;DHT22;1685;53.104;8.228;2022-12-10T18:48:21;0.50;99.90
3344;DHT22;1685;53.104;8.228;2022-12-10T19:15:26;0.50;99.90
3344;DHT22;1685;53.104;8.228;2022-12-10T19:20:22;0.50;99.90
3344;DHT22;1685;53.104;8.228;2022-12-10T19:22:52;0.50;99.90
3344;DHT22;1685;53.104;8.228;2022-12-10T19:25:19;0.50;99.90
3344;DHT22;1685;53.104;8.228;2022-12-10T19:27:47;0.50;99.90
3344;DHT22;1685;53.104;8.228;2022-12-10T19:30:17;1.00;99.90
3344;DHT22;1685;53.104;8.228;2022-12-10T19:40:16;0.50;99.90
3344;DHT22;1685;53.104;8.228;2022-12-10T19:50:05;0.50;99.90
3344;DHT22;1685;53.104;8.228;2022-12-10T19:57:28;0.50;99.90
3344;DHT22;1685;53.104;8.228;2022-12-10T20:14:38;0.40;99.90
3344;DHT22;1685;53.104;8.228;2022-12-10T20:29:25;0.40;99.90
3344;DHT22;1685;53.104;8.228;2022-12-10T20:31:55;0.40;99.90
3344;DHT22;1685;53.104;8.228;2022-12-10T20:34:23;0.40;99.90
3344;DHT22;1685;53.104;8.228;2022-12-10T20:39:19;0.40;99.90
3344;DHT22;1685;53.104;8.228;2022-12-10T20:41:47;0.40;99.90
3344;DHT22;1685;53.104;8.228;2022-12-10T20:49:11;0.50;99.90
3344;DHT22;1685;53.104;8.228;2022-12-10T21:06:24;0.40;99.90
3344;DHT22;1685;53.104;8.228;2022-12-10T21:11:19;0.40;99.90
3344;DHT22;1685;53.104;8.228;2022-12-10T21:16:15;0.40;99.90
3344;DHT22;1685;53.104;8.228;2022-12-10T21:21:10;0.40;99.90
3344;DHT22;1685;53.104;8.228;2022-12-10T21:23:40;0.40;99.90
3344;DHT22;1685;53.104;8.228;2022-12-10T21:40:51;0.30;99.90
3344;DHT22;1685;53.104;8.228;2022-12-10T21:43:21;0.30;99.90
3344;DHT22;1685;53.104;8.228;2022-12-10T21:45:50;0.30;99.90
3344;DHT22;1685;53.104;8.228;2022-12-10T21:48:19;0.30;99.90
3344;DHT22;1685;53.104;8.228;2022-12-10T21:58:09;0.40;99.90
3344;DHT22;1685;53.104;8.228;2022-12-10T22:15:20;0.20;99.90
3344;DHT22;1685;53.104;8.228;2022-12-10T22:30:04;0.20;99.90
3344;DHT22;1685;53.104;8.228;2022-12-10T22:32:32;0.40;99.90
3344;DHT22;1685;53.104;8.228;2022-12-10T22:39:54;0.30;99.90
3344;DHT22;1685;53.104;8.228;2022-12-10T22:47:26;0.30;99.90
3344;DHT22;1685;53.104;8.228;2022-12-10T22:49:55;0.30;99.90
3344;DHT22;1685;53.104;8.228;2022-12-10T23:07:06;0.30;99.90
3344;DHT22;1685;53.104;8.228;2022-12-10T23:14:44;0.30;99.90
3344;DHT22;1685;53.104;8.228;2022-12-10T23:22:07;0.20;99.90
3344;DHT22;1685;53.104;8.228;2022-12-10T23:39:17;0.40;99.90
3344;DHT22;1685;53.104;8.228;2022-12-10T23:56:27;0.20;99.90
